createdAt,value
2022-11-08T00:01:17.060Z,5.38
2022-11-08T00:03:45.775Z,6.80
2022-11-08T00:06:31.419Z,5.90
2022-11-08T00:09:16.753Z,4.80
2022-11-08T00:12:03.789Z,3.47
2022-11-08T00:14:32.823Z,7.00
2022-11-08T00:17:01.392Z,4.28
2022-11-08T00:19:29.764Z,4.82
2022-11-08T00:21:58.069Z,5.65
2022-11-08T00:24:26.770Z,6.07
2022-11-08T00:26:56.938Z,6.05
2022-11-08T00:29:25.327Z,3.47
2022-11-08T00:31:53.668Z,7.47
2022-11-08T00:34:22.122Z,7.88
2022-11-08T00:36:50.542Z,7.25
2022-11-08T00:39:18.906Z,4.32
2022-11-08T00:41:47.308Z,6.45
2022-11-08T00:44:17.133Z,5.43
2022-11-08T00:46:45.506Z,4.38
2022-11-08T00:49:13.875Z,5.40
2022-11-08T00:51:43.828Z,5.13
2022-11-08T00:54:16.158Z,6.50
2022-11-08T00:56:44.746Z,4.93
2022-11-08T00:59:13.982Z,9.07
2022-11-08T01:01:44.548Z,4.80
2022-11-08T01:04:14.725Z,6.13
2022-11-08T01:06:43.563Z,4.03
2022-11-08T01:09:12.643Z,4.40
2022-11-08T01:11:45.490Z,5.80
2022-11-08T01:14:14.858Z,3.47
2022-11-08T01:16:45.566Z,6.07
2022-11-08T01:19:13.971Z,4.30
2022-11-08T01:21:42.318Z,13.68
2022-11-08T01:24:11.017Z,6.95
2022-11-08T01:26:39.375Z,7.45
2022-11-08T01:29:07.846Z,6.13
2022-11-08T01:31:36.245Z,4.43
2022-11-08T01:34:06.800Z,3.97
2022-11-08T01:36:35.165Z,5.10
2022-11-08T01:39:03.534Z,4.65
2022-11-08T01:41:31.989Z,5.82
2022-11-08T01:44:01.485Z,5.18
2022-11-08T01:46:38.423Z,5.28
2022-11-08T01:49:30.626Z,5.97
2022-11-08T01:52:06.146Z,5.85
2022-11-08T01:54:39.478Z,3.70
2022-11-08T01:57:12.890Z,3.28
2022-11-08T01:59:44.796Z,5.00
2022-11-08T02:02:14.357Z,4.72
2022-11-08T02:04:44.896Z,3.60
2022-11-08T02:07:15.188Z,5.30
2022-11-08T02:09:46.194Z,5.53
2022-11-08T02:12:16.066Z,4.75
2022-11-08T02:14:44.697Z,5.28
2022-11-08T02:17:14.663Z,5.55
2022-11-08T02:19:46.765Z,3.95
2022-11-08T02:22:22.665Z,5.07
2022-11-08T02:24:52.707Z,4.20
2022-11-08T02:27:21.734Z,10.30
2022-11-08T02:29:54.170Z,3.58
2022-11-08T02:32:24.074Z,6.28
2022-11-08T02:34:56.154Z,4.15
2022-11-08T02:37:27.253Z,5.80
2022-11-08T02:39:57.416Z,4.57
2022-11-08T02:42:26.000Z,7.43
2022-11-08T02:44:55.010Z,7.65
2022-11-08T02:47:24.353Z,7.85
2022-11-08T02:49:53.444Z,6.50
2022-11-08T02:52:22.026Z,8.30
2022-11-08T02:54:50.480Z,7.03
2022-11-08T02:57:20.288Z,8.52
2022-11-08T02:59:49.433Z,7.47
2022-11-08T03:02:17.974Z,6.60
2022-11-08T03:04:46.830Z,7.28
2022-11-08T03:07:15.235Z,6.28
2022-11-08T03:09:44.118Z,7.90
2022-11-08T03:12:12.612Z,9.32
2022-11-08T03:14:42.471Z,5.93
2022-11-08T03:17:10.780Z,8.93
2022-11-08T03:19:39.247Z,4.88
2022-11-08T03:22:07.958Z,8.63
2022-11-08T03:24:36.271Z,6.43
2022-11-08T03:27:04.719Z,4.25
2022-11-08T03:29:33.093Z,8.10
2022-11-08T03:32:03.479Z,6.50
2022-11-08T03:34:32.204Z,5.65
2022-11-08T03:37:00.929Z,7.05
2022-11-08T03:39:29.245Z,6.32
2022-11-08T03:41:59.833Z,6.78
2022-11-08T03:44:28.554Z,8.98
2022-11-08T03:46:57.007Z,8.68
2022-11-08T03:49:27.049Z,6.53
2022-11-08T03:51:56.056Z,6.75
2022-11-08T03:54:24.687Z,6.53
2022-11-08T03:56:53.375Z,6.45
2022-11-08T03:59:21.766Z,6.90
2022-11-08T04:01:50.363Z,5.28
2022-11-08T04:04:18.977Z,5.47
2022-11-08T04:06:48.982Z,7.28
2022-11-08T04:09:21.338Z,7.22
2022-11-08T04:12:07.396Z,5.53
2022-11-08T04:14:52.967Z,6.93
2022-11-08T04:17:41.269Z,6.15
2022-11-08T04:20:28.145Z,6.93
2022-11-08T04:22:57.899Z,8.25
2022-11-08T04:25:28.933Z,8.63
2022-11-08T04:27:59.602Z,8.40
2022-11-08T04:30:27.977Z,6.10
2022-11-08T04:32:56.325Z,11.52
2022-11-08T04:35:24.637Z,6.22
2022-11-08T04:37:53.094Z,4.65
2022-11-08T04:40:22.892Z,6.07
2022-11-08T04:42:51.712Z,6.53
2022-11-08T04:45:20.382Z,7.05
2022-11-08T04:47:49.697Z,6.30
2022-11-08T04:50:18.336Z,6.28
2022-11-08T04:52:52.997Z,9.77
2022-11-08T04:55:23.587Z,10.60
2022-11-08T04:57:52.374Z,6.57
2022-11-08T05:00:21.148Z,8.82
2022-11-08T05:02:49.574Z,7.03
2022-11-08T05:05:18.120Z,6.22
2022-11-08T05:07:46.803Z,4.53
2022-11-08T05:10:15.202Z,8.07
2022-11-08T05:12:44.978Z,6.07
2022-11-08T05:15:13.903Z,7.05
2022-11-08T05:17:42.313Z,6.93
2022-11-08T05:20:29.378Z,5.93
2022-11-08T05:23:20.042Z,6.65
2022-11-08T05:25:48.702Z,5.30
2022-11-08T05:28:19.072Z,7.40
2022-11-08T05:30:54.264Z,5.93
2022-11-08T05:33:23.363Z,4.97
2022-11-08T05:35:51.929Z,5.95
2022-11-08T05:38:21.652Z,5.72
2022-11-08T05:40:50.603Z,6.82
2022-11-08T05:43:20.708Z,7.05
2022-11-08T05:45:49.257Z,6.13
2022-11-08T05:48:18.056Z,5.75
2022-11-08T05:50:47.097Z,5.10
2022-11-08T05:53:15.934Z,6.47
2022-11-08T05:55:44.635Z,6.63
2022-11-08T05:58:13.047Z,6.95
2022-11-08T06:00:43.377Z,6.15
2022-11-08T06:03:11.774Z,4.80
2022-11-08T06:05:40.210Z,5.10
2022-11-08T06:08:08.534Z,5.57
2022-11-08T06:10:36.941Z,7.63
2022-11-08T06:13:05.678Z,6.30
2022-11-08T06:15:33.987Z,7.75
2022-11-08T06:18:05.974Z,7.97
2022-11-08T06:20:34.349Z,8.38
2022-11-08T06:23:02.678Z,7.88
2022-11-08T06:25:31.397Z,5.22
2022-11-08T06:28:01.335Z,10.73
2022-11-08T06:30:29.797Z,11.77
2022-11-08T06:33:01.158Z,16.30
2022-11-08T06:35:31.595Z,9.63
2022-11-08T06:38:02.016Z,4.78
2022-11-08T06:40:32.466Z,5.25
2022-11-08T06:43:01.014Z,4.93
2022-11-08T06:45:30.091Z,5.63
2022-11-08T06:47:59.574Z,7.70
2022-11-08T06:50:28.485Z,4.45
2022-11-08T06:53:03.220Z,7.78
2022-11-08T06:55:31.902Z,4.40
2022-11-08T06:58:00.826Z,7.80
2022-11-08T07:00:29.735Z,5.10
2022-11-08T07:02:59.612Z,7.95
2022-11-08T07:05:29.280Z,5.38
2022-11-08T07:08:01.133Z,5.95
2022-11-08T07:10:31.555Z,5.78
2022-11-08T07:13:00.990Z,4.60
2022-11-08T07:15:30.238Z,4.43
2022-11-08T07:18:01.845Z,6.18
2022-11-08T07:20:31.334Z,4.75
2022-11-08T07:23:01.607Z,8.32
2022-11-08T07:25:31.633Z,7.20
2022-11-08T07:28:01.476Z,5.10
2022-11-08T07:30:30.571Z,4.78
2022-11-08T07:33:00.130Z,4.05
2022-11-08T07:35:29.366Z,5.60
2022-11-08T07:37:58.560Z,5.55
2022-11-08T07:40:28.504Z,7.10
2022-11-08T07:43:15.483Z,4.88
2022-11-08T07:45:44.365Z,6.00
2022-11-08T07:48:14.503Z,3.85
2022-11-08T07:50:43.381Z,4.20
2022-11-08T07:53:12.456Z,5.32
2022-11-08T07:55:42.765Z,6.63
2022-11-08T07:58:12.827Z,4.13
2022-11-08T08:00:42.910Z,6.97
2022-11-08T08:03:12.901Z,2.50
2022-11-08T08:05:44.318Z,1.65
2022-11-08T08:08:14.097Z,2.25
2022-11-08T08:10:44.043Z,4.05
2022-11-08T08:13:12.625Z,4.50
2022-11-08T08:15:41.649Z,3.35
2022-11-08T08:18:11.214Z,2.97
2022-11-08T08:20:40.314Z,4.38
2022-11-08T08:23:08.832Z,2.17
2022-11-08T08:25:37.139Z,3.22
2022-11-08T08:28:07.346Z,3.03
2022-11-08T08:30:35.846Z,3.25
2022-11-08T08:33:28.352Z,3.75
2022-11-08T08:35:56.647Z,1.95
2022-11-08T08:38:25.155Z,2.72
2022-11-08T08:40:54.143Z,1.65
2022-11-08T08:43:24.057Z,4.15
2022-11-08T08:45:52.442Z,7.07
2022-11-08T08:48:21.624Z,3.92
2022-11-08T08:50:50.003Z,2.55
2022-11-08T08:53:19.306Z,2.47
2022-11-08T08:55:48.580Z,3.10
2022-11-08T08:58:17.045Z,2.47
2022-11-08T09:03:36.538Z,2.10
2022-11-08T09:06:06.054Z,3.53
2022-11-08T09:08:34.436Z,4.20
2022-11-08T09:11:03.233Z,1.13
2022-11-08T09:13:32.555Z,2.70
2022-11-08T09:16:03.833Z,3.15
2022-11-08T09:18:33.070Z,2.33
2022-11-08T09:21:04.585Z,3.03
2022-11-08T09:23:33.122Z,2.75
2022-11-08T09:26:02.906Z,2.92
2022-11-08T09:28:32.046Z,2.60
2022-11-08T09:31:07.188Z,1.23
2022-11-08T09:33:35.622Z,2.15
2022-11-08T09:36:05.378Z,3.42
2022-11-08T09:38:34.185Z,3.33
2022-11-08T09:41:30.422Z,3.85
2022-11-08T09:44:15.026Z,2.40
2022-11-08T09:46:51.466Z,3.40
2022-11-08T09:49:23.604Z,1.88
2022-11-08T09:51:52.728Z,2.78
2022-11-08T09:54:25.559Z,2.65
2022-11-08T09:56:56.319Z,2.83
2022-11-08T09:59:36.223Z,3.13
2022-11-08T10:02:16.657Z,2.42
2022-11-08T10:04:50.601Z,2.25
2022-11-08T10:07:29.722Z,1.77
2022-11-08T10:10:17.251Z,5.25
2022-11-08T10:12:56.443Z,1.90
2022-11-08T10:15:36.570Z,3.47
2022-11-08T10:18:20.543Z,2.95
2022-11-08T10:23:33.857Z,3.63
2022-11-08T10:26:07.030Z,4.18
2022-11-08T10:28:38.895Z,2.75
2022-11-08T10:31:08.163Z,2.83
2022-11-08T10:33:45.447Z,2.85
2022-11-08T10:36:21.658Z,6.03
2022-11-08T10:38:56.422Z,3.33
2022-11-08T10:41:32.161Z,2.65
2022-11-08T10:44:06.523Z,1.92
2022-11-08T10:46:41.525Z,3.83
2022-11-08T10:49:18.325Z,1.60
2022-11-08T10:51:48.047Z,2.63
2022-11-08T10:54:45.111Z,1.73
2022-11-08T10:57:16.625Z,3.40
2022-11-08T10:59:46.055Z,1.27
2022-11-08T11:02:24.578Z,1.92
2022-11-08T11:04:56.292Z,2.28
2022-11-08T11:07:32.361Z,4.35
2022-11-08T11:10:19.607Z,1.98
2022-11-08T11:12:51.433Z,2.40
2022-11-08T11:15:20.245Z,1.95
2022-11-08T11:17:48.887Z,2.83
2022-11-08T11:20:25.150Z,1.65
2022-11-08T11:22:54.602Z,1.77
2022-11-08T11:25:25.032Z,4.35
2022-11-08T11:27:56.893Z,1.90
2022-11-08T11:30:31.382Z,2.88
2022-11-08T11:33:06.303Z,3.67
2022-11-08T11:35:45.351Z,1.15
2022-11-08T11:38:23.846Z,4.18
2022-11-08T11:40:55.314Z,2.88
2022-11-08T11:43:30.461Z,1.92
2022-11-08T11:46:10.927Z,1.83
2022-11-08T11:48:47.297Z,2.17
2022-11-08T11:51:17.816Z,1.80
2022-11-08T11:53:48.992Z,3.67
2022-11-08T11:56:41.921Z,3.08
2022-11-08T11:59:46.890Z,3.90
2022-11-08T12:02:42.976Z,2.85
2022-11-08T12:05:30.146Z,1.73
2022-11-08T12:08:10.043Z,2.00
2022-11-08T12:10:54.825Z,2.00
2022-11-08T12:13:31.631Z,2.13
2022-11-08T12:16:08.807Z,1.70
2022-11-08T12:18:53.226Z,2.83
2022-11-08T12:21:30.388Z,1.63
2022-11-08T12:24:24.405Z,3.67
2022-11-08T12:27:02.247Z,2.40
2022-11-08T12:29:37.004Z,1.25
2022-11-08T12:32:26.193Z,1.67
2022-11-08T12:35:13.220Z,2.45
2022-11-08T12:37:50.353Z,1.30
2022-11-08T12:40:28.886Z,5.43
2022-11-08T12:43:06.451Z,1.50
2022-11-08T12:45:54.460Z,2.70
2022-11-08T12:48:47.476Z,1.42
2022-11-08T12:51:23.239Z,2.60
2022-11-08T12:54:12.891Z,2.58
2022-11-08T12:56:45.490Z,2.05
2022-11-08T12:59:21.217Z,2.80
2022-11-08T13:01:50.726Z,4.78
2022-11-08T13:04:32.195Z,2.58
2022-11-08T13:07:08.485Z,1.55
2022-11-08T13:09:45.413Z,2.20
2022-11-08T13:12:42.251Z,1.55
2022-11-08T13:15:19.222Z,1.70
2022-11-08T13:18:26.827Z,1.73
2022-11-08T13:20:55.204Z,2.58
2022-11-08T13:23:31.319Z,3.10
2022-11-08T13:26:22.998Z,1.70
2022-11-08T13:28:53.538Z,2.55
2022-11-08T13:31:43.079Z,3.83
2022-11-08T13:34:30.578Z,1.67
2022-11-08T13:37:22.761Z,1.33
2022-11-08T13:40:10.547Z,2.85
2022-11-08T13:42:42.430Z,5.00
2022-11-08T13:45:28.152Z,2.70
2022-11-08T13:47:59.340Z,4.32
2022-11-08T13:50:51.037Z,2.88
2022-11-08T13:53:36.368Z,2.60
2022-11-08T13:56:47.042Z,4.45
2022-11-08T13:59:54.551Z,2.10
2022-11-08T14:02:34.742Z,3.70
2022-11-08T14:05:33.602Z,4.53
2022-11-08T14:08:21.409Z,2.90
2022-11-08T14:11:30.446Z,2.45
2022-11-08T14:14:23.929Z,1.70
2022-11-08T14:17:27.115Z,1.83
2022-11-08T14:20:08.966Z,1.10
2022-11-08T14:25:16.226Z,1.48
2022-11-08T14:27:44.613Z,1.70
2022-11-08T14:30:17.287Z,1.67
2022-11-08T14:32:45.966Z,3.53
2022-11-08T14:35:26.953Z,3.45
2022-11-08T14:37:56.029Z,1.85
2022-11-08T14:40:26.103Z,4.10
2022-11-08T14:42:56.112Z,1.92
2022-11-08T14:45:29.093Z,3.88
2022-11-08T14:48:03.980Z,1.77
2022-11-08T14:50:35.825Z,2.88
2022-11-08T14:53:26.620Z,3.08
2022-11-08T14:56:16.038Z,2.95
2022-11-08T14:58:44.684Z,2.33
2022-11-08T15:01:14.080Z,2.50
2022-11-08T15:03:49.028Z,3.33
2022-11-08T15:06:19.200Z,2.17
2022-11-08T15:08:51.529Z,3.17
2022-11-08T15:11:32.261Z,2.05
2022-11-08T15:14:03.683Z,4.43
2022-11-08T15:16:43.402Z,1.70
2022-11-08T15:19:39.346Z,2.47
2022-11-08T15:22:28.014Z,3.25
2022-11-08T15:25:04.500Z,2.55
2022-11-08T15:27:33.109Z,3.33
2022-11-08T15:30:03.879Z,2.88
2022-11-08T15:32:38.159Z,3.45
2022-11-08T15:35:07.964Z,2.05
2022-11-08T15:37:39.931Z,2.70
2022-11-08T15:40:18.909Z,2.47
2022-11-08T15:42:48.860Z,2.22
2022-11-08T15:45:27.295Z,4.13
2022-11-08T15:48:03.118Z,3.22
2022-11-08T15:50:32.653Z,2.13
2022-11-08T15:53:04.110Z,5.20
2022-11-08T15:55:36.961Z,2.30
2022-11-08T15:58:05.685Z,2.07
2022-11-08T16:00:36.851Z,1.63
2022-11-08T16:03:06.225Z,4.15
2022-11-08T16:05:34.553Z,3.28
2022-11-08T16:08:04.385Z,2.00
2022-11-08T16:10:36.845Z,3.70
2022-11-08T16:13:05.878Z,1.88
2022-11-08T16:15:36.357Z,1.48
2022-11-08T16:18:05.193Z,2.17
2022-11-08T16:20:35.837Z,4.28
2022-11-08T16:23:08.156Z,3.35
2022-11-08T16:25:38.962Z,3.05
2022-11-08T16:28:20.925Z,3.17
2022-11-08T16:30:50.122Z,2.05
2022-11-08T16:33:22.017Z,1.80
2022-11-08T16:35:51.375Z,3.20
2022-11-08T16:38:25.362Z,1.92
2022-11-08T16:40:53.974Z,3.03
2022-11-08T16:43:22.835Z,2.92
2022-11-08T16:46:04.871Z,2.08
2022-11-08T16:48:36.712Z,1.88
2022-11-08T16:51:07.231Z,1.60
2022-11-08T16:53:38.450Z,3.33
2022-11-08T16:56:07.014Z,2.47
2022-11-08T16:58:35.358Z,3.50
2022-11-08T17:01:09.940Z,2.53
2022-11-08T17:03:38.850Z,2.50
2022-11-08T17:06:08.270Z,2.28
2022-11-08T17:08:38.180Z,3.60
2022-11-08T17:11:06.737Z,5.43
2022-11-08T17:13:40.287Z,2.50
2022-11-08T17:16:12.500Z,4.30
2022-11-08T17:18:41.287Z,2.80
2022-11-08T17:21:38.192Z,4.35
2022-11-08T17:24:00.772Z,2.45
2022-11-08T17:26:29.128Z,1.90
2022-11-08T17:28:57.734Z,1.95
2022-11-08T17:31:26.181Z,2.33
2022-11-08T17:33:56.198Z,1.83
2022-11-08T17:36:25.524Z,5.25
2022-11-08T17:38:53.845Z,3.38
2022-11-08T17:41:23.806Z,3.25
2022-11-08T17:43:52.234Z,2.30
2022-11-08T17:46:20.821Z,2.92
2022-11-08T17:48:49.812Z,5.18
2022-11-08T17:51:18.281Z,3.65
2022-11-08T17:53:47.022Z,1.88
2022-11-08T17:56:16.572Z,4.28
2022-11-08T17:58:46.523Z,2.67
2022-11-08T18:01:16.143Z,2.83
2022-11-08T18:03:44.768Z,4.22
2022-11-08T18:06:16.681Z,3.45
2022-11-08T18:08:45.139Z,3.92
2022-11-08T18:11:13.682Z,3.45
2022-11-08T18:13:42.594Z,2.45
2022-11-08T18:16:14.481Z,3.53
2022-11-08T18:18:43.519Z,1.73
2022-11-08T18:21:12.967Z,4.47
2022-11-08T18:23:43.280Z,3.22
2022-11-08T18:26:12.938Z,2.67
2022-11-08T18:28:43.078Z,2.90
2022-11-08T18:31:14.737Z,3.20
2022-11-08T18:33:43.929Z,2.95
2022-11-08T18:36:15.310Z,3.67
2022-11-08T18:38:45.946Z,2.63
2022-11-08T18:41:15.763Z,4.03
2022-11-08T18:43:44.423Z,3.85
2022-11-08T18:46:17.115Z,1.85
2022-11-08T18:48:45.738Z,2.03
2022-11-08T18:51:16.018Z,1.67
2022-11-08T18:53:44.817Z,1.73
2022-11-08T18:56:14.633Z,4.90
2022-11-08T18:58:44.401Z,2.35
2022-11-08T19:01:15.352Z,1.85
2022-11-08T19:03:43.934Z,2.50
2022-11-08T19:06:12.347Z,7.93
2022-11-08T19:08:40.762Z,4.97
2022-11-08T19:11:11.851Z,3.55
2022-11-08T19:13:41.813Z,1.95
2022-11-08T19:16:13.378Z,2.30
2022-11-08T19:18:44.527Z,3.88
2022-11-08T19:21:15.622Z,2.03
2022-11-08T19:23:46.018Z,2.08
2022-11-08T19:26:16.358Z,3.65
2022-11-08T19:28:46.463Z,4.07
2022-11-08T19:31:15.719Z,4.07
2022-11-08T19:33:46.171Z,2.25
2022-11-08T19:36:17.147Z,2.55
2022-11-08T19:38:46.288Z,2.13
2022-11-08T19:41:16.113Z,2.25
2022-11-08T19:43:45.862Z,2.25
2022-11-08T19:46:20.298Z,2.42
2022-11-08T19:48:53.125Z,2.35
2022-11-08T19:51:23.198Z,2.00
2022-11-08T19:53:51.930Z,1.83
2022-11-08T19:56:29.227Z,2.00
2022-11-08T19:59:06.539Z,2.22
2022-11-08T20:01:36.543Z,2.80
2022-11-08T20:04:07.368Z,3.30
2022-11-08T20:06:36.520Z,5.07
2022-11-08T20:09:06.277Z,1.98
2022-11-08T20:11:36.900Z,5.15
2022-11-08T20:14:06.781Z,4.22
2022-11-08T20:16:38.262Z,3.70
2022-11-08T20:19:10.124Z,2.83
2022-11-08T20:21:42.337Z,4.20
2022-11-08T20:24:12.138Z,4.65
2022-11-08T20:26:41.586Z,5.60
2022-11-08T20:29:10.879Z,3.15
2022-11-08T20:31:39.474Z,3.58
2022-11-08T20:34:13.143Z,2.78
2022-11-08T20:36:44.276Z,4.63
2022-11-08T20:39:14.721Z,3.53
2022-11-08T20:41:43.422Z,4.45
2022-11-08T20:44:12.291Z,2.15
2022-11-08T20:46:40.755Z,3.17
2022-11-08T20:49:09.738Z,2.38
2022-11-08T20:51:39.564Z,6.78
2022-11-08T20:54:07.983Z,6.45
2022-11-08T20:56:36.408Z,2.42
2022-11-08T20:59:05.849Z,2.53
2022-11-08T21:01:34.538Z,2.60
2022-11-08T21:04:03.275Z,4.97
2022-11-08T21:06:35.835Z,2.35
2022-11-08T21:09:32.581Z,3.00
2022-11-08T21:11:55.472Z,2.53
2022-11-08T21:14:24.910Z,3.85
2022-11-08T21:19:42.339Z,1.73
2022-11-08T21:22:17.243Z,2.75
2022-11-08T21:24:49.402Z,3.22
2022-11-08T21:27:18.140Z,6.00
2022-11-08T21:29:46.553Z,3.55
2022-11-08T21:32:14.970Z,5.22
2022-11-08T21:34:46.375Z,4.13
2022-11-08T21:37:15.791Z,2.22
2022-11-08T21:39:44.495Z,4.90
2022-11-08T21:42:14.749Z,2.90
2022-11-08T21:44:43.148Z,2.67
2022-11-08T21:47:11.618Z,2.10
2022-11-08T21:49:39.980Z,3.13
2022-11-08T21:52:08.440Z,4.45
2022-11-08T21:54:36.772Z,4.88
2022-11-08T21:57:05.206Z,2.45
2022-11-08T21:59:35.825Z,3.20
2022-11-08T22:02:04.328Z,4.35
2022-11-08T22:04:32.825Z,4.97
2022-11-08T22:07:01.381Z,3.85
2022-11-08T22:09:30.217Z,2.83
2022-11-08T22:11:58.639Z,3.17
2022-11-08T22:14:27.726Z,4.05
2022-11-08T22:16:57.532Z,3.47
2022-11-08T22:19:25.950Z,2.60
2022-11-08T22:21:54.351Z,2.88
2022-11-08T22:24:23.034Z,2.63
2022-11-08T22:26:54.519Z,2.90
2022-11-08T22:29:23.114Z,2.53
2022-11-08T22:31:52.301Z,2.20
2022-11-08T22:34:22.532Z,4.75
2022-11-08T22:36:52.436Z,2.25
2022-11-08T22:39:22.750Z,3.65
2022-11-08T22:41:52.786Z,3.72
2022-11-08T22:44:21.830Z,3.28
2022-11-08T22:46:50.625Z,2.15
2022-11-08T22:49:19.021Z,2.35
2022-11-08T22:51:48.814Z,3.10
2022-11-08T22:54:17.187Z,5.53
2022-11-08T22:56:45.684Z,2.47
2022-11-08T22:59:14.359Z,4.40
2022-11-08T23:01:42.786Z,4.15
2022-11-08T23:04:12.141Z,2.65
2022-11-08T23:06:41.028Z,2.67
2022-11-08T23:09:11.874Z,3.05
2022-11-08T23:11:57.410Z,4.38
2022-11-08T23:14:43.433Z,5.55
2022-11-08T23:17:12.172Z,2.45
2022-11-08T23:19:57.921Z,3.47
2022-11-08T23:22:43.710Z,3.25
2022-11-08T23:25:13.557Z,5.57
2022-11-08T23:27:59.130Z,5.40
2022-11-08T23:30:41.279Z,4.72
2022-11-08T23:33:09.766Z,2.47
2022-11-08T23:35:38.300Z,3.33
2022-11-08T23:38:06.792Z,2.15
2022-11-08T23:40:53.877Z,2.72
2022-11-08T23:43:39.635Z,3.47
2022-11-08T23:46:10.902Z,3.58
2022-11-08T23:48:41.241Z,2.50
2022-11-08T23:51:10.145Z,3.33
2022-11-08T23:53:40.075Z,3.13
2022-11-08T23:56:10.159Z,3.50
2022-11-08T23:58:38.497Z,2.95
